createdAt,value
2022-11-24T00:00:46.927Z,6.77
2022-11-24T00:01:49.789Z,6.73
2022-11-24T00:02:51.655Z,6.74
2022-11-24T00:03:57.712Z,6.73
2022-11-24T00:04:59.540Z,6.74
2022-11-24T00:06:07.472Z,6.73
2022-11-24T00:07:09.221Z,6.73
2022-11-24T00:08:13.060Z,6.73
2022-11-24T00:09:14.898Z,6.72
2022-11-24T00:10:17.757Z,6.70
2022-11-24T00:11:21.122Z,6.72
2022-11-24T00:12:23.881Z,6.69
2022-11-24T00:13:25.560Z,6.71
2022-11-24T00:14:28.411Z,6.72
2022-11-24T00:15:30.156Z,6.73
2022-11-24T00:16:34.664Z,6.75
2022-11-24T00:17:36.502Z,6.75
2022-11-24T00:18:40.287Z,6.78
2022-11-24T00:19:43.983Z,6.77
2022-11-24T00:20:53.012Z,6.78
2022-11-24T00:21:54.975Z,6.79
2022-11-24T00:22:57.671Z,6.82
2022-11-24T00:23:59.990Z,6.84
2022-11-24T00:25:02.656Z,6.85
2022-11-24T00:26:06.364Z,6.86
2022-11-24T00:27:09.710Z,6.88
2022-11-24T00:28:11.400Z,6.89
2022-11-24T00:29:14.069Z,6.90
2022-11-24T00:30:16.416Z,6.88
2022-11-24T00:31:21.752Z,6.88
2022-11-24T00:32:23.510Z,6.89
2022-11-24T00:33:26.484Z,6.88
2022-11-24T00:34:28.240Z,6.88
2022-11-24T00:35:32.389Z,6.90
2022-11-24T00:36:36.228Z,6.87
2022-11-24T00:37:37.877Z,6.84
2022-11-24T00:38:40.846Z,6.84
2022-11-24T00:39:43.603Z,6.82
2022-11-24T00:40:45.273Z,6.83
2022-11-24T00:41:49.156Z,6.82
2022-11-24T00:42:50.849Z,6.83
2022-11-24T00:43:54.078Z,6.84
2022-11-24T00:44:55.950Z,6.76
2022-11-24T00:45:58.727Z,6.78
2022-11-24T00:47:00.685Z,6.80
2022-11-24T00:48:03.452Z,6.78
2022-11-24T00:49:06.704Z,6.83
2022-11-24T00:50:09.192Z,6.84
2022-11-24T00:51:15.147Z,6.88
2022-11-24T00:52:16.852Z,6.90
2022-11-24T00:53:19.564Z,6.90
2022-11-24T00:54:21.411Z,6.92
2022-11-24T00:55:24.092Z,6.92
2022-11-24T00:56:29.604Z,6.93
2022-11-24T00:57:32.352Z,6.93
2022-11-24T00:58:34.464Z,6.92
2022-11-24T00:59:37.114Z,6.90
2022-11-24T01:00:38.813Z,6.92
2022-11-24T01:01:42.386Z,6.93
2022-11-24T01:02:44.456Z,6.95
2022-11-24T01:03:47.759Z,6.97
2022-11-24T01:04:49.507Z,6.98
2022-11-24T01:05:52.214Z,7.01
2022-11-24T01:06:55.334Z,7.04
2022-11-24T01:07:58.146Z,7.03
2022-11-24T01:08:59.939Z,7.06
2022-11-24T01:10:03.064Z,7.06
2022-11-24T01:11:09.954Z,7.07
2022-11-24T01:12:12.654Z,7.08
2022-11-24T01:13:14.304Z,7.08
2022-11-24T01:14:16.995Z,7.08
2022-11-24T01:15:19.681Z,7.09
2022-11-24T01:16:24.177Z,7.09
2022-11-24T01:17:26.401Z,7.06
2022-11-24T01:18:29.080Z,7.08
2022-11-24T01:19:30.816Z,7.10
2022-11-24T01:20:33.790Z,7.11
2022-11-24T01:21:35.442Z,7.09
2022-11-24T01:22:39.620Z,7.09
2022-11-24T01:23:41.324Z,7.09
2022-11-24T01:24:44.407Z,7.09
2022-11-24T01:25:46.159Z,7.11
2022-11-24T01:26:48.842Z,7.12
2022-11-24T01:27:50.854Z,7.10
2022-11-24T01:28:54.191Z,7.10
2022-11-24T01:29:55.895Z,7.05
2022-11-24T01:30:59.390Z,7.06
2022-11-24T01:32:02.104Z,7.08
2022-11-24T01:33:03.993Z,7.10
2022-11-24T01:34:06.699Z,7.11
2022-11-24T01:35:09.492Z,7.11
2022-11-24T01:36:12.679Z,7.15
2022-11-24T01:37:14.488Z,7.14
2022-11-24T01:38:18.532Z,7.13
2022-11-24T01:39:20.256Z,7.10
2022-11-24T01:40:22.946Z,7.13
2022-11-24T01:41:26.089Z,7.09
2022-11-24T01:42:38.507Z,7.11
2022-11-24T01:43:40.829Z,7.11
2022-11-24T01:44:43.681Z,7.12
2022-11-24T01:45:45.760Z,7.13
2022-11-24T01:46:50.431Z,7.11
2022-11-24T01:47:52.138Z,7.03
2022-11-24T01:49:01.130Z,7.05
2022-11-24T01:50:03.869Z,7.06
2022-11-24T01:51:10.567Z,7.04
2022-11-24T01:52:16.593Z,7.01
2022-11-24T01:53:21.787Z,6.98
2022-11-24T01:54:26.380Z,6.99
2022-11-24T01:55:32.122Z,6.96
2022-11-24T01:56:36.608Z,6.96
2022-11-24T01:57:43.104Z,6.93
2022-11-24T01:58:47.044Z,6.95
2022-11-24T01:59:50.643Z,6.92
2022-11-24T02:00:53.395Z,6.93
2022-11-24T02:01:56.404Z,6.93
2022-11-24T02:02:59.852Z,6.94
2022-11-24T02:04:01.792Z,6.88
2022-11-24T02:05:07.114Z,6.90
2022-11-24T02:06:10.177Z,6.89
2022-11-24T02:07:13.802Z,6.89
2022-11-24T02:08:25.081Z,6.84
2022-11-24T02:09:31.048Z,6.84
2022-11-24T02:10:33.095Z,6.83
2022-11-24T02:11:39.159Z,6.83
2022-11-24T02:12:43.494Z,6.84
2022-11-24T02:13:47.176Z,6.86
2022-11-24T02:14:49.385Z,6.85
2022-11-24T02:15:54.108Z,6.85
2022-11-24T02:16:55.838Z,6.85
2022-11-24T02:18:00.152Z,6.75
2022-11-24T02:19:02.058Z,6.79
2022-11-24T02:20:07.128Z,6.80
2022-11-24T02:21:09.802Z,6.83
2022-11-24T02:22:18.977Z,6.85
2022-11-24T02:23:25.163Z,6.82
2022-11-24T02:24:34.633Z,6.83
2022-11-24T02:25:42.422Z,6.87
2022-11-24T02:26:47.748Z,6.87
2022-11-24T02:27:53.862Z,6.87
2022-11-24T02:28:57.267Z,6.87
2022-11-24T02:29:59.245Z,6.88
2022-11-24T02:31:02.280Z,6.90
2022-11-24T02:32:06.396Z,6.90
2022-11-24T02:33:09.056Z,6.89
2022-11-24T02:34:10.771Z,6.90
2022-11-24T02:35:15.008Z,6.91
2022-11-24T02:36:17.108Z,6.94
2022-11-24T02:37:19.758Z,6.94
2022-11-24T02:38:29.935Z,6.93
2022-11-24T02:39:32.722Z,6.95
2022-11-24T02:40:34.589Z,6.94
2022-11-24T02:41:37.475Z,6.94
2022-11-24T02:42:43.228Z,6.94
2022-11-24T02:43:49.277Z,6.97
2022-11-24T02:44:55.116Z,6.98
2022-11-24T02:45:57.836Z,6.98
2022-11-24T02:47:06.566Z,6.97
2022-11-24T02:48:09.599Z,6.98
2022-11-24T02:49:11.313Z,6.98
2022-11-24T02:50:14.165Z,6.96
2022-11-24T02:51:15.829Z,6.97
2022-11-24T02:52:18.568Z,6.96
2022-11-24T02:53:20.411Z,6.96
2022-11-24T02:54:23.183Z,6.93
2022-11-24T02:55:24.934Z,6.94
2022-11-24T02:56:27.860Z,6.94
2022-11-24T02:57:29.540Z,6.93
2022-11-24T02:58:33.652Z,6.92
2022-11-24T02:59:35.363Z,6.93
2022-11-24T03:00:37.990Z,6.92
2022-11-24T03:01:39.744Z,6.92
2022-11-24T03:02:42.549Z,6.93
2022-11-24T03:03:44.392Z,6.93
2022-11-24T03:04:47.164Z,6.93
2022-11-24T03:05:48.900Z,6.94
2022-11-24T03:06:51.644Z,6.94
2022-11-24T03:07:53.367Z,6.93
2022-11-24T03:08:56.371Z,6.94
2022-11-24T03:09:58.058Z,6.94
2022-11-24T03:11:01.962Z,6.94
2022-11-24T03:12:03.981Z,6.95
2022-11-24T03:13:06.644Z,6.94
2022-11-24T03:14:09.972Z,6.94
2022-11-24T03:15:12.962Z,6.93
2022-11-24T03:16:14.709Z,6.93
2022-11-24T03:17:17.590Z,6.91
2022-11-24T03:18:19.360Z,6.90
2022-11-24T03:19:22.078Z,6.89
2022-11-24T03:20:24.341Z,6.89
2022-11-24T03:21:27.038Z,6.88
2022-11-24T03:22:28.922Z,6.85
2022-11-24T03:23:31.641Z,6.86
2022-11-24T03:24:33.671Z,6.86
2022-11-24T03:25:36.713Z,6.87
2022-11-24T03:26:38.375Z,6.85
2022-11-24T03:27:41.075Z,6.84
2022-11-24T03:28:42.822Z,6.83
2022-11-24T03:29:46.908Z,6.83
2022-11-24T03:30:48.759Z,6.80
2022-11-24T03:31:51.533Z,6.80
2022-11-24T03:32:53.600Z,6.80
2022-11-24T03:33:56.476Z,6.79
2022-11-24T03:34:58.122Z,6.76
2022-11-24T03:36:00.771Z,6.78
2022-11-24T03:37:02.448Z,6.78
2022-11-24T03:38:05.086Z,6.77
2022-11-24T03:39:07.284Z,6.77
2022-11-24T03:40:10.900Z,6.77
2022-11-24T03:41:12.632Z,6.80
2022-11-24T03:42:15.348Z,6.81
2022-11-24T03:43:17.153Z,6.81
2022-11-24T03:44:20.031Z,6.78
2022-11-24T03:45:44.832Z,6.78
2022-11-24T03:46:45.871Z,6.79
2022-11-24T03:47:50.322Z,6.80
2022-11-24T03:48:53.219Z,6.82
2022-11-24T03:49:54.879Z,6.82
2022-11-24T03:50:59.026Z,6.81
2022-11-24T03:52:05.118Z,6.84
2022-11-24T03:53:10.658Z,6.83
2022-11-24T03:54:12.596Z,6.83
2022-11-24T03:55:15.478Z,6.84
2022-11-24T03:56:17.136Z,6.84
2022-11-24T03:57:19.926Z,6.85
2022-11-24T03:58:21.933Z,6.82
2022-11-24T03:59:24.594Z,6.82
2022-11-24T04:00:27.890Z,6.79
2022-11-24T04:01:30.579Z,6.74
2022-11-24T04:02:32.442Z,6.74
2022-11-24T04:03:35.439Z,6.79
2022-11-24T04:04:37.146Z,6.80
2022-11-24T04:05:39.805Z,6.72
2022-11-24T04:06:41.568Z,6.76
2022-11-24T04:07:44.285Z,6.74
2022-11-24T04:08:46.151Z,6.77
2022-11-24T04:09:48.840Z,6.80
2022-11-24T04:10:51.343Z,6.78
2022-11-24T04:12:11.835Z,6.79
2022-11-24T04:13:16.546Z,6.83
2022-11-24T04:14:19.338Z,6.83
2022-11-24T04:15:22.293Z,6.83
2022-11-24T04:16:25.361Z,6.87
2022-11-24T04:17:29.455Z,6.89
2022-11-24T04:18:31.262Z,6.88
2022-11-24T04:19:33.910Z,6.85
2022-11-24T04:20:36.202Z,6.89
2022-11-24T04:21:38.843Z,6.90
2022-11-24T04:22:40.620Z,6.91
2022-11-24T04:23:43.349Z,6.93
2022-11-24T04:24:45.039Z,6.87
2022-11-24T04:25:47.999Z,6.89
2022-11-24T04:26:49.784Z,6.88
2022-11-24T04:27:53.410Z,6.89
2022-11-24T04:28:55.399Z,6.88
2022-11-24T04:29:58.031Z,6.88
2022-11-24T04:31:02.151Z,6.90
2022-11-24T04:32:06.599Z,6.96
2022-11-24T04:33:08.305Z,6.99
2022-11-24T04:34:11.984Z,7.02
2022-11-24T04:35:14.171Z,7.03
2022-11-24T04:36:16.840Z,7.06
2022-11-24T04:37:18.498Z,7.09
2022-11-24T04:39:23.502Z,7.09
2022-11-24T04:39:42.872Z,7.09
2022-11-24T04:40:45.648Z,7.12
2022-11-24T04:41:47.388Z,7.14
2022-11-24T04:42:57.302Z,7.18
2022-11-24T04:43:58.971Z,7.20
2022-11-24T04:45:01.849Z,7.22
2022-11-24T04:46:03.745Z,7.26
2022-11-24T04:47:08.100Z,7.26
2022-11-24T04:48:09.886Z,7.25
2022-11-24T04:49:12.551Z,7.18
2022-11-24T04:50:14.382Z,7.22
2022-11-24T04:51:17.078Z,7.26
2022-11-24T04:52:19.697Z,7.26
2022-11-24T04:53:22.643Z,7.27
2022-11-24T04:54:24.343Z,7.29
2022-11-24T04:55:27.016Z,7.31
2022-11-24T04:56:28.710Z,7.34
2022-11-24T04:57:31.408Z,7.30
2022-11-24T04:58:33.280Z,7.33
2022-11-24T04:59:35.970Z,7.34
2022-11-24T05:00:38.204Z,7.36
2022-11-24T05:01:41.054Z,7.40
2022-11-24T05:02:44.099Z,7.41
2022-11-24T05:03:46.818Z,7.43
2022-11-24T05:04:48.771Z,7.41
2022-11-24T05:05:51.523Z,7.43
2022-11-24T05:06:53.614Z,7.45
2022-11-24T05:07:56.495Z,7.49
2022-11-24T05:08:58.290Z,7.49
2022-11-24T05:10:18.266Z,7.50
2022-11-24T05:11:21.015Z,7.52
2022-11-24T05:12:23.436Z,7.52
2022-11-24T05:13:29.056Z,7.53
2022-11-24T05:14:30.696Z,7.57
2022-11-24T05:15:33.542Z,7.55
2022-11-24T05:16:35.979Z,7.56
2022-11-24T05:17:40.062Z,7.57
2022-11-24T05:18:43.257Z,7.59
2022-11-24T05:19:45.987Z,7.62
2022-11-24T05:20:49.514Z,7.62
2022-11-24T05:21:52.321Z,7.65
2022-11-24T05:22:55.007Z,7.65
2022-11-24T05:23:56.673Z,7.66
2022-11-24T05:24:59.748Z,7.65
2022-11-24T05:26:02.103Z,7.68
2022-11-24T05:27:04.891Z,7.68
2022-11-24T05:28:09.942Z,7.68
2022-11-24T05:29:12.574Z,7.70
2022-11-24T05:30:14.435Z,7.69
2022-11-24T05:31:17.177Z,7.73
2022-11-24T05:32:18.891Z,7.74
2022-11-24T05:33:23.249Z,7.73
2022-11-24T05:34:26.295Z,7.72
2022-11-24T05:35:29.146Z,7.75
2022-11-24T05:36:49.350Z,7.75
2022-11-24T05:37:52.107Z,7.79
2022-11-24T05:38:53.807Z,7.78
2022-11-24T05:39:56.556Z,7.81
2022-11-24T05:41:00.788Z,7.83
2022-11-24T05:42:25.683Z,7.84
2022-11-24T05:43:27.683Z,7.84
2022-11-24T05:44:30.323Z,7.86
2022-11-24T05:45:32.103Z,7.86
2022-11-24T05:46:34.815Z,7.86
2022-11-24T05:47:37.421Z,7.88
2022-11-24T05:48:40.197Z,7.89
2022-11-24T05:49:43.443Z,7.89
2022-11-24T05:50:46.142Z,7.89
2022-11-24T05:51:47.949Z,7.89
2022-11-24T05:52:50.836Z,7.90
2022-11-24T05:53:52.594Z,7.89
2022-11-24T05:54:55.261Z,7.89
2022-11-24T05:55:56.962Z,7.90
2022-11-24T05:56:59.999Z,7.92
2022-11-24T05:58:04.449Z,7.90
2022-11-24T05:59:09.788Z,7.90
2022-11-24T06:00:13.915Z,7.89
2022-11-24T06:01:15.650Z,7.88
2022-11-24T06:02:19.115Z,7.90
2022-11-24T06:03:22.056Z,7.89
2022-11-24T06:04:23.715Z,7.88
2022-11-24T06:05:28.917Z,7.87
2022-11-24T06:06:30.724Z,7.87
2022-11-24T06:07:33.545Z,7.87
2022-11-24T06:08:35.224Z,7.81
2022-11-24T06:09:38.613Z,7.81
2022-11-24T06:10:40.303Z,7.83
2022-11-24T06:11:43.230Z,7.84
2022-11-24T06:12:44.984Z,7.84
2022-11-24T06:13:49.318Z,7.88
2022-11-24T06:14:51.320Z,7.88
2022-11-24T06:15:54.247Z,7.83
2022-11-24T06:16:56.133Z,7.86
2022-11-24T06:17:58.926Z,7.88
2022-11-24T06:19:00.713Z,7.87
2022-11-24T06:20:03.607Z,7.88
2022-11-24T06:21:11.512Z,7.88
2022-11-24T06:22:14.618Z,7.89
2022-11-24T06:23:17.362Z,7.88
2022-11-24T06:24:19.112Z,7.89
2022-11-24T06:25:21.786Z,7.90
2022-11-24T06:26:23.636Z,7.91
2022-11-24T06:27:26.285Z,7.91
2022-11-24T06:28:28.097Z,7.93
2022-11-24T06:29:30.781Z,7.93
2022-11-24T06:30:33.557Z,7.93
2022-11-24T06:31:35.337Z,7.95
2022-11-24T06:32:39.015Z,7.96
2022-11-24T06:33:40.723Z,7.95
2022-11-24T06:34:43.702Z,7.96
2022-11-24T06:35:45.485Z,7.99
2022-11-24T06:36:49.502Z,8.00
2022-11-24T06:37:51.424Z,8.01
2022-11-24T06:38:54.083Z,8.02
2022-11-24T06:39:56.770Z,8.01
2022-11-24T06:41:00.022Z,8.01
2022-11-24T06:42:02.731Z,8.03
2022-11-24T06:43:04.496Z,8.02
2022-11-24T06:44:07.210Z,8.00
2022-11-24T06:45:10.824Z,8.03
2022-11-24T06:46:13.009Z,8.04
2022-11-24T06:47:15.997Z,8.05
2022-11-24T06:48:17.720Z,8.02
2022-11-24T06:49:20.624Z,8.02
2022-11-24T06:50:22.416Z,8.04
2022-11-24T06:51:26.364Z,8.04
2022-11-24T06:52:31.560Z,8.00
2022-11-24T06:53:37.753Z,8.03
2022-11-24T06:54:40.417Z,8.00
2022-11-24T06:55:42.573Z,8.03
2022-11-24T06:56:45.259Z,8.05
2022-11-24T06:57:46.931Z,8.03
2022-11-24T06:58:50.660Z,8.04
2022-11-24T06:59:52.402Z,8.05
2022-11-24T07:00:55.406Z,8.06
2022-11-24T07:01:58.162Z,8.04
2022-11-24T07:03:00.447Z,8.03
2022-11-24T07:04:04.423Z,8.03
2022-11-24T07:05:07.320Z,8.02
2022-11-24T07:06:10.006Z,8.07
2022-11-24T07:07:12.841Z,8.08
2022-11-24T07:08:18.013Z,8.05
2022-11-24T07:09:20.845Z,7.98
2022-11-24T07:10:22.493Z,7.99
2022-11-24T07:11:25.343Z,7.99
2022-11-24T07:12:27.193Z,8.00
2022-11-24T07:13:29.884Z,8.00
2022-11-24T07:14:33.133Z,8.02
2022-11-24T07:15:35.378Z,8.01
2022-11-24T07:16:38.411Z,8.00
2022-11-24T07:17:40.764Z,8.01
2022-11-24T07:18:43.785Z,8.01
2022-11-24T07:19:46.475Z,7.99
2022-11-24T07:20:48.362Z,8.01
2022-11-24T07:21:51.175Z,7.97
2022-11-24T07:22:56.259Z,7.98
2022-11-24T07:24:00.400Z,7.99
2022-11-24T07:25:07.179Z,7.97
2022-11-24T07:26:09.879Z,7.99
2022-11-24T07:27:12.582Z,7.97
2022-11-24T07:28:14.679Z,7.95
2022-11-24T07:29:17.763Z,7.92
2022-11-24T07:30:19.534Z,7.95
2022-11-24T07:31:24.981Z,7.91
2022-11-24T07:32:27.050Z,7.94
2022-11-24T07:33:29.809Z,7.92
2022-11-24T07:34:32.967Z,7.92
2022-11-24T07:35:34.973Z,7.91
2022-11-24T07:36:38.847Z,7.87
2022-11-24T07:37:41.531Z,7.88
2022-11-24T07:38:43.282Z,7.91
2022-11-24T07:39:47.388Z,7.88
2022-11-24T07:40:49.014Z,7.92
2022-11-24T07:41:51.658Z,7.87
2022-11-24T07:42:53.469Z,7.85
2022-11-24T07:43:56.775Z,7.83
2022-11-24T07:44:59.512Z,7.80
2022-11-24T07:46:02.277Z,7.84
2022-11-24T07:47:05.017Z,7.85
2022-11-24T07:48:08.031Z,7.88
2022-11-24T07:49:10.717Z,7.86
2022-11-24T07:50:12.926Z,7.83
2022-11-24T07:51:15.983Z,7.88
2022-11-24T07:52:17.635Z,7.88
2022-11-24T07:53:20.481Z,7.76
2022-11-24T07:54:23.247Z,7.81
2022-11-24T07:55:26.285Z,7.86
2022-11-24T07:56:29.094Z,7.87
2022-11-24T07:57:30.924Z,7.88
2022-11-24T07:58:34.969Z,7.91
2022-11-24T07:59:37.667Z,7.86
2022-11-24T08:00:39.538Z,7.87
2022-11-24T08:01:42.472Z,7.86
2022-11-24T08:02:44.658Z,7.88
2022-11-24T08:03:47.840Z,7.92
2022-11-24T08:04:49.594Z,7.96
2022-11-24T08:06:22.155Z,7.94
2022-11-24T08:07:17.854Z,7.82
2022-11-24T08:08:19.652Z,7.78
2022-11-24T08:09:22.382Z,7.79
2022-11-24T08:10:24.102Z,7.82
2022-11-24T08:11:28.770Z,7.83
2022-11-24T08:12:32.363Z,7.78
2022-11-24T08:13:34.518Z,7.80
2022-11-24T08:14:37.259Z,7.80
2022-11-24T08:15:39.523Z,7.83
2022-11-24T08:16:42.262Z,7.85
2022-11-24T08:17:44.210Z,7.84
2022-11-24T08:18:50.733Z,7.78
2022-11-24T08:19:52.430Z,7.84
2022-11-24T08:20:55.345Z,7.85
2022-11-24T08:21:58.054Z,7.82
2022-11-24T08:23:00.787Z,7.73
2022-11-24T08:24:03.611Z,7.78
2022-11-24T08:25:06.050Z,7.82
2022-11-24T08:26:10.827Z,7.77
2022-11-24T08:27:15.332Z,7.74
2022-11-24T08:28:17.120Z,7.77
2022-11-24T08:29:19.793Z,7.80
2022-11-24T08:30:21.473Z,7.81
2022-11-24T08:31:27.496Z,7.82
2022-11-24T08:32:29.549Z,7.79
2022-11-24T08:33:32.248Z,7.77
2022-11-24T08:34:34.441Z,7.80
2022-11-24T08:35:38.436Z,7.84
2022-11-24T08:36:41.225Z,7.87
2022-11-24T08:37:42.998Z,7.84
2022-11-24T08:38:46.134Z,7.81
2022-11-24T08:39:47.905Z,7.75
2022-11-24T08:40:50.593Z,7.80
2022-11-24T08:41:53.463Z,7.80
2022-11-24T08:43:00.717Z,7.83
2022-11-24T08:44:02.533Z,7.87
2022-11-24T08:45:19.918Z,7.87
2022-11-24T08:46:24.187Z,7.88
2022-11-24T08:47:26.209Z,7.91
2022-11-24T08:48:29.232Z,7.95
2022-11-24T08:49:31.877Z,7.96
2022-11-24T08:50:35.582Z,7.94
2022-11-24T08:51:38.467Z,7.95
2022-11-24T08:52:41.130Z,7.95
2022-11-24T08:53:43.582Z,7.96
2022-11-24T08:54:46.794Z,8.00
2022-11-24T08:55:48.721Z,8.05
2022-11-24T08:56:51.448Z,8.05
2022-11-24T08:57:54.158Z,8.11
2022-11-24T08:58:58.770Z,8.09
2022-11-24T09:00:01.583Z,7.97
2022-11-24T09:01:08.147Z,8.05
2022-11-24T09:02:12.432Z,8.10
2022-11-24T09:03:14.227Z,8.12
2022-11-24T09:04:16.986Z,8.02
2022-11-24T09:05:50.151Z,8.09
2022-11-24T09:06:41.626Z,8.04
2022-11-24T09:07:43.474Z,7.97
2022-11-24T09:08:46.369Z,8.05
2022-11-24T09:09:49.031Z,8.04
2022-11-24T09:10:51.440Z,8.10
2022-11-24T09:11:54.089Z,8.09
2022-11-24T09:12:56.822Z,8.12
2022-11-24T09:14:01.046Z,8.17
2022-11-24T09:15:02.895Z,8.20
2022-11-24T09:16:06.221Z,8.28
2022-11-24T09:17:09.003Z,8.28
2022-11-24T09:18:11.829Z,8.30
2022-11-24T09:19:14.559Z,8.36
2022-11-24T09:20:17.688Z,8.43
2022-11-24T09:21:22.126Z,8.46
2022-11-24T09:22:24.877Z,8.48
2022-11-24T09:23:26.992Z,8.52
2022-11-24T09:24:29.633Z,8.44
2022-11-24T09:25:31.426Z,8.48
2022-11-24T09:26:36.014Z,8.51
2022-11-24T09:27:38.683Z,8.54
2022-11-24T09:28:40.977Z,8.45
2022-11-24T09:29:45.962Z,8.38
2022-11-24T09:30:48.734Z,8.44
2022-11-24T09:31:51.523Z,8.42
2022-11-24T09:32:55.372Z,8.40
2022-11-24T09:33:59.467Z,8.31
2022-11-24T09:35:02.206Z,8.34
2022-11-24T09:36:05.602Z,8.38
2022-11-24T09:37:08.269Z,8.40
2022-11-24T09:38:10.326Z,8.40
2022-11-24T09:39:13.160Z,8.30
2022-11-24T09:40:16.580Z,8.33
2022-11-24T09:41:36.140Z,8.31
2022-11-24T09:42:42.218Z,8.37
2022-11-24T09:43:56.021Z,8.36
2022-11-24T09:45:13.192Z,8.41
2022-11-24T09:46:20.980Z,8.38
2022-11-24T09:47:32.596Z,8.44
2022-11-24T09:48:37.648Z,8.44
2022-11-24T09:49:49.853Z,8.53
2022-11-24T09:50:54.145Z,8.61
2022-11-24T09:51:56.759Z,8.60
2022-11-24T09:53:03.773Z,8.60
2022-11-24T09:54:11.767Z,8.62
2022-11-24T09:55:22.415Z,8.65
2022-11-24T09:56:27.677Z,8.69
2022-11-24T09:57:37.560Z,8.65
2022-11-24T09:58:44.430Z,8.69
2022-11-24T09:59:46.100Z,8.74
2022-11-24T10:00:53.807Z,8.75
2022-11-24T10:01:56.870Z,8.78
2022-11-24T10:02:58.749Z,8.77
2022-11-24T10:04:06.295Z,8.80
2022-11-24T10:05:09.993Z,8.82
2022-11-24T10:06:21.851Z,8.81
2022-11-24T10:07:29.419Z,8.93
2022-11-24T10:09:07.688Z,9.11
2022-11-24T10:10:21.176Z,9.24
2022-11-24T10:11:36.210Z,9.34
2022-11-24T10:12:51.118Z,9.50
2022-11-24T10:14:09.679Z,9.56
2022-11-24T10:15:21.609Z,9.61
2022-11-24T10:16:40.222Z,9.66
2022-11-24T10:17:57.330Z,9.56
2022-11-24T10:19:05.447Z,9.54
2022-11-24T10:20:12.710Z,9.48
2022-11-24T10:21:28.024Z,9.40
2022-11-24T10:22:41.772Z,9.37
2022-11-24T10:23:57.418Z,9.33
2022-11-24T10:25:10.222Z,9.38
2022-11-24T10:26:17.094Z,9.38
2022-11-24T10:27:22.801Z,9.44
2022-11-24T10:28:29.965Z,9.47
2022-11-24T10:29:37.783Z,9.49
2022-11-24T10:30:40.681Z,9.47
2022-11-24T10:31:45.941Z,9.49
2022-11-24T10:32:54.711Z,9.50
2022-11-24T10:33:59.374Z,9.55
2022-11-24T10:35:15.985Z,9.52
2022-11-24T10:36:22.995Z,9.36
2022-11-24T10:37:29.881Z,9.42
2022-11-24T10:38:37.116Z,9.45
2022-11-24T10:39:46.582Z,9.54
2022-11-24T10:40:58.789Z,9.59
2022-11-24T10:42:05.694Z,9.68
2022-11-24T10:43:10.502Z,9.71
2022-11-24T10:44:14.939Z,9.70
2022-11-24T10:45:19.643Z,9.75
2022-11-24T10:46:25.816Z,9.74
2022-11-24T10:47:31.047Z,9.79
2022-11-24T10:48:38.958Z,9.90
2022-11-24T10:49:41.728Z,9.97
2022-11-24T10:50:44.434Z,10.01
2022-11-24T10:52:08.489Z,10.08
2022-11-24T10:53:18.410Z,10.07
2022-11-24T10:54:21.405Z,10.11
2022-11-24T10:55:24.073Z,10.10
2022-11-24T10:56:25.834Z,10.13
2022-11-24T10:57:31.235Z,10.05
2022-11-24T10:58:37.947Z,10.10
2022-11-24T10:59:41.115Z,10.15
2022-11-24T11:00:43.814Z,10.21
2022-11-24T11:01:45.636Z,10.10
2022-11-24T11:02:51.048Z,10.14
2022-11-24T11:03:55.310Z,10.27
2022-11-24T11:04:58.133Z,10.37
2022-11-24T11:06:02.899Z,10.44
2022-11-24T11:07:09.811Z,10.54
2022-11-24T11:08:19.875Z,10.61
2022-11-24T11:09:23.916Z,10.63
2022-11-24T11:10:25.556Z,10.75
2022-11-24T11:11:29.160Z,10.82
2022-11-24T11:12:47.107Z,10.85
2022-11-24T11:13:56.889Z,10.82
2022-11-24T11:15:23.502Z,10.82
2022-11-24T11:16:32.746Z,10.87
2022-11-24T11:17:37.019Z,10.83
2022-11-24T11:18:41.104Z,10.84
2022-11-24T11:19:54.130Z,10.78
2022-11-24T11:20:58.500Z,10.72
2022-11-24T11:22:02.677Z,10.69
2022-11-24T11:23:17.358Z,10.62
2022-11-24T11:24:20.187Z,10.67
2022-11-24T11:25:24.766Z,10.67
2022-11-24T11:26:36.222Z,10.65
2022-11-24T11:27:39.713Z,10.52
2022-11-24T11:28:42.414Z,10.47
2022-11-24T11:31:22.034Z,10.40
2022-11-24T11:34:10.852Z,10.18
2022-11-24T11:35:18.727Z,10.23
2022-11-24T11:36:20.438Z,10.26
2022-11-24T11:37:25.947Z,10.27
2022-11-24T11:38:34.138Z,10.30
2022-11-24T11:39:43.868Z,10.40
2022-11-24T11:40:50.454Z,10.40
2022-11-24T11:41:59.434Z,10.35
2022-11-24T11:43:05.824Z,10.30
2022-11-24T11:44:15.392Z,10.36
2022-11-24T11:45:21.189Z,10.43
2022-11-24T11:46:26.355Z,10.39
2022-11-24T11:47:32.488Z,10.28
2022-11-24T11:48:43.271Z,10.19
2022-11-24T11:49:49.220Z,10.19
2022-11-24T11:51:22.299Z,10.15
2022-11-24T11:52:31.284Z,10.09
2022-11-24T11:53:44.745Z,10.07
2022-11-24T11:55:15.939Z,10.07
2022-11-24T11:56:24.421Z,10.17
2022-11-24T11:57:34.243Z,10.16
2022-11-24T11:59:15.188Z,10.10
2022-11-24T12:00:19.256Z,9.99
2022-11-24T12:01:39.602Z,10.03
2022-11-24T12:03:17.768Z,10.02
2022-11-24T12:04:24.883Z,10.07
2022-11-24T12:05:32.533Z,10.10
2022-11-24T12:06:48.686Z,10.16
2022-11-24T12:08:06.359Z,10.17
2022-11-24T12:09:21.389Z,10.03
2022-11-24T12:10:31.215Z,10.03
2022-11-24T12:11:38.956Z,10.15
2022-11-24T12:12:51.167Z,10.21
2022-11-24T12:14:05.474Z,10.27
2022-11-24T12:15:11.345Z,10.25
2022-11-24T12:16:30.986Z,10.27
2022-11-24T12:17:37.675Z,10.34
2022-11-24T12:18:59.371Z,10.41
2022-11-24T12:20:14.775Z,10.32
2022-11-24T12:21:24.808Z,10.30
2022-11-24T12:22:36.144Z,10.18
2022-11-24T12:23:48.223Z,10.13
2022-11-24T12:24:56.240Z,10.17
2022-11-24T12:26:05.492Z,10.12
2022-11-24T12:27:12.089Z,10.00
2022-11-24T12:28:24.011Z,9.91
2022-11-24T12:29:44.971Z,9.96
2022-11-24T12:30:54.777Z,9.89
2022-11-24T12:32:00.539Z,10.04
2022-11-24T12:33:15.433Z,10.07
2022-11-24T12:34:42.020Z,10.11
2022-11-24T12:35:46.131Z,10.16
2022-11-24T12:37:03.757Z,10.11
2022-11-24T12:38:19.325Z,10.00
2022-11-24T12:39:27.173Z,10.07
2022-11-24T12:40:43.620Z,10.05
2022-11-24T12:41:57.851Z,10.02
2022-11-24T12:43:06.921Z,10.04
2022-11-24T12:44:19.086Z,10.09
2022-11-24T12:45:24.875Z,10.07
2022-11-24T12:46:33.262Z,10.18
2022-11-24T12:47:43.159Z,10.20
2022-11-24T12:48:54.757Z,10.20
2022-11-24T12:50:03.749Z,10.27
2022-11-24T12:51:08.897Z,10.28
2022-11-24T12:52:20.862Z,10.34
2022-11-24T12:53:25.430Z,10.31
2022-11-24T12:54:35.010Z,10.29
2022-11-24T12:55:39.460Z,10.34
2022-11-24T12:56:45.950Z,10.30
2022-11-24T12:57:52.544Z,10.38
2022-11-24T12:58:59.771Z,10.37
2022-11-24T13:00:07.096Z,10.36
2022-11-24T13:01:17.202Z,10.38
2022-11-24T13:02:26.764Z,10.37
2022-11-24T13:03:37.964Z,10.40
2022-11-24T13:04:46.835Z,10.40
2022-11-24T13:05:54.385Z,10.34
2022-11-24T13:07:00.021Z,10.31
2022-11-24T13:08:06.100Z,10.35
2022-11-24T13:09:10.214Z,10.33
2022-11-24T13:10:55.756Z,10.40
2022-11-24T13:11:59.187Z,10.44
2022-11-24T13:13:07.047Z,10.45
2022-11-24T13:14:16.431Z,10.51
2022-11-24T13:15:43.610Z,10.51
2022-11-24T13:17:21.545Z,10.56
2022-11-24T13:18:48.213Z,10.77
2022-11-24T13:19:51.230Z,10.91
2022-11-24T13:20:53.022Z,11.00
2022-11-24T13:22:16.298Z,11.05
2022-11-24T13:23:26.096Z,10.98
2022-11-24T13:24:30.695Z,10.98
2022-11-24T13:25:34.971Z,10.87
2022-11-24T13:26:45.497Z,10.95
2022-11-24T13:27:50.703Z,10.92
2022-11-24T13:29:06.041Z,10.90
2022-11-24T13:30:59.568Z,10.98
2022-11-24T13:32:50.888Z,11.00
2022-11-24T13:33:53.653Z,11.17
2022-11-24T13:35:03.359Z,11.39
2022-11-24T13:36:33.580Z,11.61
2022-11-24T13:37:51.618Z,11.93
2022-11-24T13:38:55.858Z,12.13
2022-11-24T13:39:59.917Z,12.30
2022-11-24T13:41:21.293Z,12.33
2022-11-24T13:42:41.626Z,12.45
2022-11-24T13:44:24.933Z,12.49
2022-11-24T13:45:52.342Z,12.34
2022-11-24T13:47:03.254Z,12.25
2022-11-24T13:48:53.108Z,12.10
2022-11-24T13:49:57.177Z,12.08
2022-11-24T13:51:24.635Z,12.41
2022-11-24T13:52:43.988Z,12.84
2022-11-24T13:53:48.221Z,13.23
2022-11-24T13:54:51.103Z,13.63
2022-11-24T13:55:55.237Z,14.08
2022-11-24T13:57:35.521Z,14.67
2022-11-24T13:58:39.242Z,15.04
2022-11-24T13:59:42.954Z,15.40
2022-11-24T14:01:02.604Z,15.82
2022-11-24T14:02:20.780Z,16.13
2022-11-24T14:03:27.524Z,16.39
2022-11-24T14:04:32.648Z,16.68
2022-11-24T14:05:40.690Z,16.97
2022-11-24T14:06:44.579Z,17.25
2022-11-24T14:07:48.470Z,17.48
2022-11-24T14:08:51.225Z,17.70
2022-11-24T14:09:54.240Z,17.83
2022-11-24T14:10:57.942Z,17.99
2022-11-24T14:12:05.299Z,18.21
2022-11-24T14:13:18.481Z,18.41
2022-11-24T14:14:21.379Z,18.52
2022-11-24T14:15:27.151Z,18.66
2022-11-24T14:16:29.938Z,18.78
2022-11-24T14:17:32.681Z,18.90
2022-11-24T14:18:35.405Z,19.06
2022-11-24T14:19:38.052Z,19.23
2022-11-24T14:20:41.110Z,19.38
2022-11-24T14:21:45.090Z,19.56
2022-11-24T14:22:47.849Z,19.69
2022-11-24T14:23:51.062Z,19.88
2022-11-24T14:24:55.682Z,19.94
2022-11-24T14:25:57.629Z,19.97
2022-11-24T14:27:00.575Z,19.93
2022-11-24T14:28:03.371Z,20.02
2022-11-24T14:29:07.973Z,20.08